logo
Search for airport 
image banner adimage banner adimage banner ad
image banner ad

SVDY - Centro Lago 1

Located in Maracaibo, Venezuela

ICAO - , IATA -

Data provided by Airmate  

General information

Coordinates: N9°52'21" W71°27'15"
Elevation is feet MSL.
 
View others Airports in Zulia

Operational data

Special qualification required
Current time UTC:
Current local time:
Weather at : - ( 0 km )
METAR: SAEZ 191440Z 17007KT 9999 BKN010 15/13 Q1013 NOSIG
View NOTAMs / SUP AIP / TFR affecting this airport [VIEW]
Communications frequencies: [VIEW]

Runways:

Airport contact information

Address: Maracaibo Venezuela

Satellite view of SVDY